Anna Maria, FL

1:26 AM EDT on October 23, 2014 (GMT -0400)
Saint Petersburg-Clearwater International | Change Station
CLOSE
Current Station
Airport
Location: St. Petersburg Airport,
Elevation: 10 ft
Nearby Weather Stations

Elev 10 ft 27.91 °N, 82.69 °W | Updated 33 minutes ago

Partly Cloudy
Partly Cloudy
70 °F
Feels Like 70 °F
N
13
Wind Variable Wind from ENE
Gusts 21 mph

Today
High -- | Low -- °F
--% Chance of Precip.
Yesterday
High -- | Low -- °F
Precip. -- in
7:35 AM 6:54 PM
Waning Crescent, 0% visible
Pressure 29.98 in
Visibility 10.0 miles
Clouds Clear
Dew Point 61 °F
Humidity 73%
Rainfall 0.00 in
Snow Depth Not available.
UV 0 out of 12
Pollen 6.70 out of 12
Air Quality Not available.
Flu Activity Local Activity
METAR KPIE 230453Z AUTO 06011G18KT 10SM CLR 21/16 A2998 RMK AO2 SLP152 T02110161 403000206

More Conditions Fewer Conditions

Pressure 29.98 in
Visibility 10.0 miles
Clouds Clear
Dew Point 61 °F
Humidity 73%
Rainfall 0.00 in
Snow Depth Not available.
UV 0 out of 12
Pollen 6.70 out of 12
Air Quality Not available.
Flu Activity Local Activity
METAR KPIE 230453Z AUTO 06011G18KT 10SM CLR 21/16 A2998 RMK AO2 SLP152 T02110161 403000206

More Conditions Fewer Conditions

10-Day Weather Forecast

Almanac

Astronomy

Oct. 23, 2014 Rise Set
Actual Time 7:35 AM EDT 6:54 PM EDT
Civil Twilight 7:11 AM EDT 7:18 PM EDT
Nautical Twilight 6:44 AM EDT 7:45 PM EDT
Astronomical Twilight 6:17 AM EDT 8:12 PM EDT
Moon 7:16 AM EDT 6:55 PM EDT
Length of Visible Light 12h 06m
Length of Day
11h 18m
Tomorrow will be 1m 30s shorter.
Waning Crescent, 0% of the Moon is Illuminated
Today
Waning Crescent
Oct 23
New
Oct 30
First Quarter
Nov 6
Full
Nov 14
Last Quarter

Today's Extremes

State Highs State Lows

Community

WunderPhotos

Upload Photos

1,764,170 photos uploaded!

Nearby

Snow Depth

Station Depth Elevation
No new snow has been reported.

Earthquake Activity

City Distance Mag. Time & Date
No recent earthquake activity has been reported nearby.
Minimum magnitude displayed is 2.5.

Coastal Water Temperatures

Place Temperature
St Petersburg, FL 82.0 °F
Old Port Tampa, FL 79.0 °F
McKay Bay Entrance, FL 81.0 °F

Nearby Weather Stations